createdAt,value
2022-08-27T00:00:44.937Z,23.85
2022-08-27T00:03:12.288Z,23.08
2022-08-27T00:05:39.711Z,24.73
2022-08-27T00:08:08.497Z,22.35
2022-08-27T00:10:35.264Z,27.77
2022-08-27T00:13:02.246Z,23.80
2022-08-27T00:15:29.579Z,21.73
2022-08-27T00:17:56.740Z,22.50
2022-08-27T00:20:25.847Z,21.52
2022-08-27T00:22:53.232Z,23.50
2022-08-27T00:25:20.433Z,22.95
2022-08-27T00:27:50.364Z,24.15
2022-08-27T00:30:20.949Z,24.00
2022-08-27T00:32:47.700Z,24.02
2022-08-27T00:35:16.119Z,26.17
2022-08-27T00:37:43.719Z,25.50
2022-08-27T00:40:15.672Z,26.30
2022-08-27T00:42:45.701Z,28.23
2022-08-27T00:45:15.947Z,31.63
2022-08-27T00:47:57.132Z,32.58
2022-08-27T00:50:29.475Z,32.08
2022-08-27T00:53:03.806Z,29.50
2022-08-27T00:55:43.565Z,29.27
2022-08-27T00:58:22.878Z,29.77
2022-08-27T01:00:50.835Z,27.90
2022-08-27T01:03:17.952Z,32.28
2022-08-27T01:05:47.096Z,32.17
2022-08-27T01:08:19.397Z,28.73
2022-08-27T01:10:47.308Z,28.48
2022-08-27T01:13:17.316Z,25.77
2022-08-27T01:15:44.692Z,29.63
2022-08-27T01:18:13.398Z,30.77
2022-08-27T01:20:56.490Z,29.67
2022-08-27T01:23:44.423Z,31.08
2022-08-27T01:26:14.590Z,32.05
2022-08-27T01:28:42.150Z,28.17
2022-08-27T01:31:12.244Z,26.83
2022-08-27T01:33:39.609Z,28.20
2022-08-27T01:36:06.841Z,31.83
2022-08-27T01:38:33.607Z,32.67
2022-08-27T01:41:01.743Z,32.20
2022-08-27T01:43:31.036Z,32.72
2022-08-27T01:45:58.403Z,34.75
2022-08-27T01:48:25.104Z,34.15
2022-08-27T01:50:51.927Z,32.58
2022-08-27T01:53:23.548Z,36.92
2022-08-27T01:55:51.937Z,38.85
2022-08-27T01:58:21.038Z,30.20
2022-08-27T02:00:56.447Z,39.33
2022-08-27T02:03:24.178Z,37.58
2022-08-27T02:05:51.529Z,38.08
2022-08-27T02:08:18.903Z,41.60
2022-08-27T02:10:47.729Z,42.92
2022-08-27T02:13:14.745Z,37.80
2022-08-27T02:15:43.183Z,38.35
2022-08-27T02:18:11.145Z,47.83
2022-08-27T02:20:38.071Z,42.80
2022-08-27T02:23:06.104Z,43.33
2022-08-27T02:25:33.141Z,43.72
2022-08-27T02:28:00.840Z,49.63
2022-08-27T02:30:29.810Z,43.58
2022-08-27T02:32:56.509Z,43.03
2022-08-27T02:35:24.786Z,53.92
2022-08-27T02:37:52.037Z,41.88
2022-08-27T02:40:22.037Z,52.55
2022-08-27T02:42:49.117Z,43.08
2022-08-27T02:45:17.338Z,45.35
2022-08-27T02:47:44.480Z,44.85
2022-08-27T02:50:13.413Z,40.05
2022-08-27T02:52:40.485Z,38.58
2022-08-27T02:55:07.926Z,50.58
2022-08-27T02:57:44.300Z,40.90
2022-08-27T03:00:14.087Z,38.60
2022-08-27T03:02:41.420Z,36.45
2022-08-27T03:05:08.882Z,47.25
2022-08-27T03:07:37.180Z,40.58
2022-08-27T03:10:05.377Z,51.65
2022-08-27T03:12:33.294Z,40.05
2022-08-27T03:15:00.037Z,42.10
2022-08-27T03:17:45.258Z,42.78
2022-08-27T03:20:12.297Z,39.67
2022-08-27T03:22:40.193Z,44.92
2022-08-27T03:25:08.058Z,42.95
2022-08-27T03:27:35.205Z,43.45
2022-08-27T03:30:04.761Z,45.40
2022-08-27T03:32:31.670Z,46.00
2022-08-27T03:34:59.081Z,38.92
2022-08-27T03:37:26.767Z,43.25
2022-08-27T03:39:53.679Z,39.45
2022-08-27T03:42:21.451Z,42.08
2022-08-27T03:44:48.801Z,40.92
2022-08-27T03:47:15.623Z,42.47
2022-08-27T03:49:42.361Z,43.75
2022-08-27T03:52:09.893Z,43.72
2022-08-27T03:54:38.066Z,47.60
2022-08-27T03:57:08.085Z,46.03
2022-08-27T03:59:35.407Z,52.40
2022-08-27T04:02:02.577Z,43.42
2022-08-27T04:04:30.860Z,53.38
2022-08-27T04:06:59.180Z,48.22
2022-08-27T04:09:26.496Z,47.20
2022-08-27T04:11:53.577Z,35.95
2022-08-27T04:14:27.016Z,40.63
2022-08-27T04:16:58.120Z,54.38
2022-08-27T04:19:28.560Z,43.70
2022-08-27T04:22:00.299Z,42.47
2022-08-27T04:24:27.951Z,37.90
2022-08-27T04:26:54.772Z,36.45
2022-08-27T04:29:21.457Z,37.53
2022-08-27T04:31:48.422Z,39.28
2022-08-27T04:34:17.020Z,42.92
2022-08-27T04:36:43.775Z,40.97
2022-08-27T04:39:10.450Z,47.85
2022-08-27T04:41:37.158Z,40.15
2022-08-27T04:44:09.180Z,45.45
2022-08-27T04:46:40.627Z,36.95
2022-08-27T04:49:11.492Z,41.35
2022-08-27T04:51:40.037Z,43.03
2022-08-27T04:54:08.625Z,50.53
2022-08-27T04:56:36.697Z,39.40
2022-08-27T04:59:06.610Z,42.92
2022-08-27T05:01:33.515Z,44.83
2022-08-27T05:04:00.679Z,58.22
2022-08-27T05:06:27.750Z,45.88
2022-08-27T05:08:54.625Z,41.05
2022-08-27T05:11:23.388Z,40.83
2022-08-27T05:13:50.534Z,51.63
2022-08-27T05:16:20.739Z,41.75
2022-08-27T05:18:48.844Z,42.92
2022-08-27T05:21:25.459Z,42.70
2022-08-27T05:23:54.168Z,39.63
2022-08-27T05:26:21.694Z,43.22
2022-08-27T05:28:48.581Z,41.22
2022-08-27T05:31:16.487Z,42.33
2022-08-27T05:33:43.873Z,43.75
2022-08-27T05:36:26.228Z,42.40
2022-08-27T05:38:54.547Z,42.47
2022-08-27T05:41:33.888Z,34.38
2022-08-27T05:44:18.469Z,43.22
2022-08-27T05:46:51.159Z,42.33
2022-08-27T05:49:18.317Z,44.17
2022-08-27T05:51:45.015Z,39.28
2022-08-27T05:54:18.889Z,38.63
2022-08-27T05:56:46.117Z,38.80
2022-08-27T05:59:31.602Z,41.22
2022-08-27T06:02:02.001Z,36.42
2022-08-27T06:04:28.791Z,43.10
2022-08-27T06:06:55.464Z,36.25
2022-08-27T06:09:24.908Z,38.10
2022-08-27T06:11:54.139Z,37.75
2022-08-27T06:14:20.993Z,32.92
2022-08-27T06:16:48.533Z,35.83
2022-08-27T06:19:15.767Z,37.47
2022-08-27T06:21:42.714Z,34.88
2022-08-27T06:24:12.673Z,37.65
2022-08-27T06:26:40.787Z,35.10
2022-08-27T06:29:09.751Z,34.92
2022-08-27T06:31:37.227Z,34.03
2022-08-27T06:34:08.303Z,29.25
2022-08-27T06:36:42.289Z,33.20
2022-08-27T06:39:13.234Z,36.17
2022-08-27T06:41:42.247Z,31.75
2022-08-27T06:44:13.114Z,31.48
2022-08-27T06:46:40.660Z,24.30
2022-08-27T06:49:08.019Z,26.38
2022-08-27T06:51:37.237Z,26.17
2022-08-27T06:54:07.044Z,32.05
2022-08-27T06:56:34.072Z,31.40
2022-08-27T06:59:03.432Z,24.80
2022-08-27T07:01:34.999Z,25.05
2022-08-27T07:04:05.651Z,25.60
2022-08-27T07:06:33.591Z,26.23
2022-08-27T07:09:00.481Z,32.22
2022-08-27T07:11:29.171Z,27.95
2022-08-27T07:13:56.176Z,36.47
2022-08-27T07:16:25.617Z,29.05
2022-08-27T07:18:54.302Z,21.27
2022-08-27T07:21:21.805Z,26.63
2022-08-27T07:23:51.646Z,27.15
2022-08-27T07:26:20.298Z,24.48
2022-08-27T07:28:47.607Z,23.05
2022-08-27T07:31:19.485Z,30.05
2022-08-27T07:33:52.524Z,18.60
2022-08-27T07:36:23.004Z,23.05
2022-08-27T07:38:57.043Z,25.40
2022-08-27T07:41:32.373Z,26.13
2022-08-27T07:44:25.988Z,27.05
2022-08-27T07:46:58.141Z,22.02
2022-08-27T07:49:27.767Z,19.13
2022-08-27T07:51:54.667Z,23.77
2022-08-27T07:54:22.554Z,21.98
2022-08-27T07:56:54.689Z,21.42
2022-08-27T07:59:24.423Z,20.92
2022-08-27T08:01:51.950Z,17.77
2022-08-27T08:04:20.470Z,22.73
2022-08-27T08:06:47.599Z,25.05
2022-08-27T08:09:14.258Z,23.73
2022-08-27T08:11:41.416Z,16.83
2022-08-27T08:14:08.160Z,18.48
2022-08-27T08:16:34.891Z,23.08
2022-08-27T08:19:01.924Z,18.50
2022-08-27T08:21:28.673Z,19.48
2022-08-27T08:23:55.382Z,20.88
2022-08-27T08:26:23.077Z,20.60
2022-08-27T08:28:49.773Z,20.58
2022-08-27T08:31:16.625Z,22.95
2022-08-27T08:33:43.345Z,22.05
2022-08-27T08:36:12.830Z,21.10
2022-08-27T08:38:40.648Z,18.60
2022-08-27T08:41:47.650Z,19.67
2022-08-27T08:44:32.472Z,21.60
2022-08-27T08:47:11.994Z,22.63
2022-08-27T08:49:55.855Z,22.40
2022-08-27T08:52:34.808Z,24.17
2022-08-27T08:55:38.913Z,22.17
2022-08-27T08:58:24.529Z,22.20
2022-08-27T09:00:56.708Z,21.08
2022-08-27T09:06:13.437Z,22.48
2022-08-27T09:08:43.285Z,22.15
2022-08-27T09:11:43.159Z,21.10
2022-08-27T09:14:26.663Z,22.27
2022-08-27T09:16:56.440Z,21.50
2022-08-27T09:19:24.702Z,19.95
2022-08-27T09:22:14.692Z,23.35
2022-08-27T09:24:53.440Z,21.33
2022-08-27T09:27:22.653Z,21.15
2022-08-27T09:29:53.061Z,21.10
2022-08-27T09:32:25.947Z,22.35
2022-08-27T09:34:56.901Z,21.48
2022-08-27T09:37:34.532Z,21.08
2022-08-27T09:40:23.048Z,21.58
2022-08-27T09:42:53.280Z,21.88
2022-08-27T09:45:27.679Z,22.52
2022-08-27T09:48:17.974Z,22.02
2022-08-27T09:50:54.115Z,20.85
2022-08-27T09:53:28.597Z,21.70
2022-08-27T09:56:00.456Z,21.98
2022-08-27T09:58:53.951Z,22.80
2022-08-27T10:01:27.583Z,21.90
2022-08-27T10:04:15.175Z,21.25
2022-08-27T10:06:50.254Z,20.75
2022-08-27T10:12:03.852Z,21.13
2022-08-27T10:14:39.055Z,21.55
2022-08-27T10:17:20.882Z,21.20
2022-08-27T10:20:24.309Z,22.15
2022-08-27T10:23:21.259Z,22.05
2022-08-27T10:26:09.685Z,21.48
2022-08-27T10:29:23.513Z,22.58
2022-08-27T10:32:08.133Z,21.95
2022-08-27T10:35:20.677Z,21.02
2022-08-27T10:38:00.441Z,20.73
2022-08-27T10:40:52.313Z,21.95
2022-08-27T10:43:33.916Z,21.88
2022-08-27T10:46:04.098Z,21.77
2022-08-27T10:48:37.891Z,20.25
2022-08-27T10:51:13.497Z,22.58
2022-08-27T10:54:10.276Z,21.58
2022-08-27T10:57:35.319Z,21.13
2022-08-27T11:00:31.219Z,20.92
2022-08-27T11:03:32.114Z,22.55
2022-08-27T11:06:09.404Z,22.40
2022-08-27T11:08:40.960Z,22.65
2022-08-27T11:12:10.274Z,22.65
2022-08-27T11:14:29.292Z,21.27
2022-08-27T11:17:03.298Z,20.92
2022-08-27T11:19:56.827Z,22.33
2022-08-27T11:22:55.960Z,21.58
2022-08-27T11:25:22.730Z,21.02
2022-08-27T11:27:51.797Z,21.40
2022-08-27T11:30:38.310Z,20.60
2022-08-27T11:33:42.807Z,19.98
2022-08-27T11:36:26.269Z,19.58
2022-08-27T11:39:13.892Z,20.88
2022-08-27T11:42:01.374Z,21.17
2022-08-27T11:44:28.508Z,21.65
2022-08-27T11:47:16.760Z,20.83
2022-08-27T11:49:48.271Z,20.90
2022-08-27T11:52:26.279Z,20.73
2022-08-27T11:55:16.572Z,21.15
2022-08-27T11:57:44.944Z,19.45
2022-08-27T12:00:26.625Z,20.48
2022-08-27T12:03:23.606Z,19.83
2022-08-27T12:05:53.258Z,20.52
2022-08-27T12:08:22.748Z,19.48
2022-08-27T12:11:11.463Z,19.92
2022-08-27T12:13:50.059Z,21.23
2022-08-27T12:16:35.179Z,20.65
2022-08-27T12:19:05.761Z,20.52
2022-08-27T12:21:43.864Z,20.65
2022-08-27T12:24:36.549Z,19.70
2022-08-27T12:27:21.489Z,20.80
2022-08-27T12:29:52.218Z,20.40
2022-08-27T12:32:18.857Z,20.40
2022-08-27T12:35:03.184Z,20.30
2022-08-27T12:37:36.055Z,23.67
2022-08-27T12:40:11.704Z,22.85
2022-08-27T12:42:38.850Z,23.30
2022-08-27T12:45:06.019Z,22.80
2022-08-27T12:47:40.656Z,21.92
2022-08-27T12:50:12.292Z,22.90
2022-08-27T12:52:59.524Z,22.50
2022-08-27T12:55:53.866Z,21.92
2022-08-27T12:58:34.913Z,22.90
2022-08-27T13:01:21.061Z,22.05
2022-08-27T13:03:51.419Z,21.27
2022-08-27T13:06:24.190Z,21.13
2022-08-27T13:08:56.396Z,20.90
2022-08-27T13:11:56.599Z,21.08
2022-08-27T13:14:26.644Z,21.08
2022-08-27T13:17:00.361Z,20.35
2022-08-27T13:19:31.164Z,22.08
2022-08-27T13:22:01.322Z,22.13
2022-08-27T13:24:35.362Z,21.45
2022-08-27T13:27:04.504Z,21.25
2022-08-27T13:29:31.577Z,21.52
2022-08-27T13:32:00.659Z,22.15
2022-08-27T13:34:31.886Z,22.83
2022-08-27T13:37:07.726Z,21.80
2022-08-27T13:39:38.070Z,22.15
2022-08-27T13:42:08.095Z,22.33
2022-08-27T13:44:37.353Z,22.92
2022-08-27T13:47:20.373Z,21.40
2022-08-27T13:49:47.920Z,22.27
2022-08-27T13:53:16.135Z,23.10
2022-08-27T13:55:47.720Z,22.77
2022-08-27T13:58:35.058Z,22.95
2022-08-27T14:01:14.717Z,23.10
2022-08-27T14:03:56.206Z,23.73
2022-08-27T14:06:31.957Z,24.30
2022-08-27T14:09:29.092Z,23.85
2022-08-27T14:12:06.120Z,22.65
2022-08-27T14:14:41.793Z,24.83
2022-08-27T14:17:25.774Z,23.77
2022-08-27T14:20:01.756Z,23.98
2022-08-27T14:22:28.928Z,24.15
2022-08-27T14:24:55.632Z,22.75
2022-08-27T14:27:22.544Z,23.45
2022-08-27T14:29:49.568Z,23.08
2022-08-27T14:32:19.021Z,23.17
2022-08-27T14:34:46.565Z,26.63
2022-08-27T14:37:14.510Z,20.48
2022-08-27T14:39:43.244Z,21.80
2022-08-27T14:42:12.071Z,21.52
2022-08-27T14:44:38.841Z,21.45
2022-08-27T14:47:09.461Z,21.42
2022-08-27T14:49:42.178Z,20.63
2022-08-27T14:52:10.270Z,21.23
2022-08-27T14:54:38.434Z,22.10
2022-08-27T14:57:07.219Z,20.92
2022-08-27T14:59:34.851Z,22.83
2022-08-27T15:02:04.466Z,22.10
2022-08-27T15:04:32.831Z,22.95
2022-08-27T15:07:00.419Z,22.27
2022-08-27T15:09:28.824Z,22.05
2022-08-27T15:11:57.152Z,22.75
2022-08-27T15:14:35.689Z,21.02
2022-08-27T15:17:22.088Z,22.27
2022-08-27T15:19:52.405Z,21.55
2022-08-27T15:22:21.874Z,22.45
2022-08-27T15:24:57.902Z,22.85
2022-08-27T15:27:32.025Z,23.98
2022-08-27T15:30:07.233Z,23.55
2022-08-27T15:32:40.626Z,22.50
2022-08-27T15:35:13.667Z,23.20
2022-08-27T15:37:41.850Z,21.95
2022-08-27T15:40:10.609Z,23.08
2022-08-27T15:42:37.717Z,21.00
2022-08-27T15:45:08.953Z,22.38
2022-08-27T15:47:37.130Z,23.20
2022-08-27T15:50:05.050Z,20.48
2022-08-27T15:52:40.225Z,22.55
2022-08-27T15:55:15.931Z,20.50
2022-08-27T15:57:42.651Z,21.75
2022-08-27T16:00:10.552Z,20.95
2022-08-27T16:02:37.329Z,21.05
2022-08-27T16:05:04.367Z,21.58
2022-08-27T16:07:31.091Z,21.65
2022-08-27T16:09:57.868Z,20.40
2022-08-27T16:12:27.392Z,19.65
2022-08-27T16:14:55.734Z,20.77
2022-08-27T16:17:23.666Z,19.98
2022-08-27T16:19:50.491Z,19.25
2022-08-27T16:22:17.184Z,20.88
2022-08-27T16:24:44.124Z,20.15
2022-08-27T16:27:11.348Z,20.55
2022-08-27T16:29:38.111Z,20.05
2022-08-27T16:32:17.182Z,19.27
2022-08-27T16:34:47.267Z,20.77
2022-08-27T16:37:14.223Z,20.40
2022-08-27T16:39:41.580Z,20.95
2022-08-27T16:42:10.046Z,21.02
2022-08-27T16:44:37.764Z,21.40
2022-08-27T16:47:06.156Z,20.67
2022-08-27T16:49:51.427Z,19.92
2022-08-27T16:52:20.173Z,20.65
2022-08-27T16:54:47.131Z,20.58
2022-08-27T16:57:13.892Z,22.35
2022-08-27T16:59:40.582Z,21.77
2022-08-27T17:02:21.150Z,20.80
2022-08-27T17:05:07.393Z,21.63
2022-08-27T17:07:40.315Z,21.55
2022-08-27T17:10:13.132Z,20.63
2022-08-27T17:12:40.612Z,20.60
2022-08-27T17:15:09.558Z,20.60
2022-08-27T17:17:38.680Z,21.48
2022-08-27T17:20:06.610Z,20.38
2022-08-27T17:22:34.820Z,21.15
2022-08-27T17:25:01.604Z,21.52
2022-08-27T17:27:28.353Z,22.08
2022-08-27T17:29:55.136Z,19.55
2022-08-27T17:32:22.268Z,21.48
2022-08-27T17:34:49.086Z,21.15
2022-08-27T17:37:15.874Z,21.52
2022-08-27T17:39:45.641Z,21.45
2022-08-27T17:42:12.475Z,21.58
2022-08-27T17:44:39.249Z,21.33
2022-08-27T17:47:07.858Z,21.10
2022-08-27T17:49:35.594Z,21.92
2022-08-27T17:52:06.612Z,18.48
2022-08-27T17:54:36.652Z,21.45
2022-08-27T17:57:14.668Z,21.58
2022-08-27T17:59:41.344Z,21.38
2022-08-27T18:02:10.360Z,23.48
2022-08-27T18:04:37.714Z,20.77
2022-08-27T18:07:04.722Z,19.58
2022-08-27T18:09:31.397Z,19.88
2022-08-27T18:11:58.690Z,20.00
2022-08-27T18:14:25.561Z,19.75
2022-08-27T18:16:52.361Z,19.58
2022-08-27T18:19:19.084Z,20.80
2022-08-27T18:21:46.775Z,21.55
2022-08-27T18:24:15.461Z,20.85
2022-08-27T18:26:43.550Z,21.75
2022-08-27T18:29:12.442Z,22.27
2022-08-27T18:31:39.323Z,23.00
2022-08-27T18:34:06.273Z,22.40
2022-08-27T18:36:33.005Z,21.73
2022-08-27T18:38:59.833Z,21.27
2022-08-27T18:41:29.184Z,21.45
2022-08-27T18:43:55.981Z,22.10
2022-08-27T18:46:22.792Z,21.77
2022-08-27T18:48:49.553Z,22.17
2022-08-27T18:51:17.838Z,21.63
2022-08-27T18:53:44.646Z,22.17
2022-08-27T18:56:16.649Z,20.88
2022-08-27T18:58:43.623Z,24.23
2022-08-27T19:01:13.708Z,21.23
2022-08-27T19:03:44.893Z,21.33
2022-08-27T19:06:12.314Z,20.20
2022-08-27T19:08:40.174Z,22.20
2022-08-27T19:11:07.042Z,22.90
2022-08-27T19:13:33.953Z,22.42
2022-08-27T19:16:03.988Z,22.48
2022-08-27T19:18:33.980Z,23.00
2022-08-27T19:21:01.203Z,22.05
2022-08-27T19:23:28.031Z,23.33
2022-08-27T19:25:55.080Z,21.80
2022-08-27T19:28:30.567Z,23.00
2022-08-27T19:30:57.349Z,22.23
2022-08-27T19:33:24.117Z,21.85
2022-08-27T19:35:50.961Z,22.60
2022-08-27T19:38:17.877Z,21.98
2022-08-27T19:40:44.601Z,21.92
2022-08-27T19:43:11.359Z,21.95
2022-08-27T19:45:40.442Z,22.25
2022-08-27T19:48:08.567Z,21.75
2022-08-27T19:50:35.445Z,22.55
2022-08-27T19:53:02.177Z,21.63
2022-08-27T19:55:29.163Z,21.63
2022-08-27T19:57:56.251Z,21.85
2022-08-27T20:00:24.988Z,20.65
2022-08-27T20:02:55.419Z,21.15
2022-08-27T20:05:22.777Z,21.48
2022-08-27T20:07:52.369Z,21.70
2022-08-27T20:10:25.706Z,20.95
2022-08-27T20:12:53.017Z,21.08
2022-08-27T20:15:20.960Z,21.52
2022-08-27T20:17:52.530Z,21.35
2022-08-27T20:20:22.459Z,21.85
2022-08-27T20:22:49.541Z,21.58
2022-08-27T20:25:16.645Z,20.45
2022-08-27T20:27:43.399Z,22.30
2022-08-27T20:30:12.723Z,20.95
2022-08-27T20:32:39.535Z,21.52
2022-08-27T20:35:07.511Z,21.13
2022-08-27T20:37:40.014Z,20.85
2022-08-27T20:40:12.316Z,20.70
2022-08-27T20:42:39.551Z,21.25
2022-08-27T20:45:11.785Z,20.52
2022-08-27T20:47:43.967Z,20.50
2022-08-27T20:50:12.699Z,20.75
2022-08-27T20:52:40.603Z,21.08
2022-08-27T20:55:09.597Z,21.08
2022-08-27T20:57:36.980Z,21.10
2022-08-27T21:00:20.192Z,20.55
2022-08-27T21:02:48.053Z,21.40
2022-08-27T21:05:16.813Z,19.88
2022-08-27T21:07:44.763Z,20.42
2022-08-27T21:10:11.589Z,19.83
2022-08-27T21:12:38.359Z,20.50
2022-08-27T21:15:07.302Z,19.23
2022-08-27T21:17:34.607Z,20.88
2022-08-27T21:20:01.345Z,19.83
2022-08-27T21:22:28.291Z,19.00
2022-08-27T21:24:55.303Z,19.92
2022-08-27T21:27:22.459Z,18.52
2022-08-27T21:29:50.302Z,20.15
2022-08-27T21:32:17.028Z,19.83
2022-08-27T21:34:43.940Z,19.70
2022-08-27T21:37:12.250Z,20.42
2022-08-27T21:39:40.202Z,19.50
2022-08-27T21:42:07.624Z,20.60
2022-08-27T21:44:35.128Z,19.95
2022-08-27T21:47:03.716Z,20.63
2022-08-27T21:49:34.259Z,19.50
2022-08-27T21:52:03.411Z,19.98
2022-08-27T21:54:36.255Z,19.33
2022-08-27T21:57:04.378Z,20.48
2022-08-27T21:59:32.285Z,19.58
2022-08-27T22:02:00.787Z,20.52
2022-08-27T22:04:30.666Z,20.27
2022-08-27T22:06:58.522Z,19.48
2022-08-27T22:09:25.999Z,19.65
2022-08-27T22:11:52.960Z,20.20
2022-08-27T22:14:19.744Z,20.05
2022-08-27T22:16:46.686Z,20.80
2022-08-27T22:19:13.370Z,21.20
2022-08-27T22:21:40.048Z,22.30
2022-08-27T22:24:07.285Z,20.02
2022-08-27T22:26:34.320Z,19.80
2022-08-27T22:29:03.782Z,20.50
2022-08-27T22:31:32.419Z,20.92
2022-08-27T22:34:00.483Z,21.40
2022-08-27T22:36:27.427Z,21.30
2022-08-27T22:38:54.579Z,22.50
2022-08-27T22:41:26.634Z,22.98
2022-08-27T22:43:56.796Z,25.13
2022-08-27T22:46:24.756Z,22.55
2022-08-27T22:48:51.547Z,21.85
2022-08-27T22:51:18.322Z,22.58
2022-08-27T22:53:45.843Z,22.35
2022-08-27T22:56:12.833Z,22.27
2022-08-27T22:58:40.543Z,21.02
2022-08-27T23:01:12.670Z,21.75
2022-08-27T23:03:39.417Z,22.50
2022-08-27T23:06:06.251Z,22.88
2022-08-27T23:08:33.012Z,21.63
2022-08-27T23:10:59.871Z,20.90
2022-08-27T23:13:26.616Z,21.67
2022-08-27T23:15:53.374Z,22.02
2022-08-27T23:18:20.131Z,23.83
2022-08-27T23:20:46.838Z,23.77
2022-08-27T23:23:13.546Z,24.92
2022-08-27T23:25:59.034Z,22.38
2022-08-27T23:30:53.486Z,23.40
2022-08-27T23:33:20.602Z,23.23
2022-08-27T23:35:50.225Z,22.67
2022-08-27T23:38:19.094Z,23.67
2022-08-27T23:40:46.387Z,25.63
2022-08-27T23:43:13.892Z,23.48
2022-08-27T23:45:41.002Z,22.77
2022-08-27T23:48:08.125Z,24.40
2022-08-27T23:50:35.248Z,25.83
2022-08-27T23:53:03.334Z,23.48
2022-08-27T23:55:30.056Z,26.92
2022-08-27T23:58:00.702Z,24.33
